CheckWX is a tool to help pilots better visualize weather data.  It is not intended as a substitute for an official pre-flight weather briefing.

08:40:38 UTC

KROG METAR
Rogers Executive - Carter Field Airport
Rogers, Arkansas, USA
Current

22 mins ago

KROG 220819Z AUTO 06009KT 10SM BKN024 BKN045 OVC085 03/M03 A3014 RMK AO2
Observed
Feb-22 @ 08:19 UTC
Wind
  • 060° at 9 KTS
Visibility
10 SM
Flight Rules
MVFR
Cloud Levels
  • Broken at 2,400' AGL
  • Broken at 4,500' AGL
  • Overcast at 8,500' AGL
Temperature
C / 37°F
Dewpoint
-3°C / 27°F
Humidity
65%
Altimeter
30.14" Hg
Pressure
1020.62 hPa
Previous

43 mins ago

KROG 220758Z AUTO 05008KT 10SM SCT026 BKN055 OVC085 03/M03 A3014 RMK AO2 SLP211 T00331028
Observed
Feb-22 @ 07:58 UTC
Wind
  • 050° at 8 KTS
Visibility
10 SM
Flight Rules
VFR
Cloud Levels
  • Scattered at 2,600' AGL
  • Broken at 5,500' AGL
  • Overcast at 8,500' AGL
Temperature
C / 37°F
Dewpoint
-3°C / 27°F
Humidity
65%
Altimeter
30.14" Hg
Pressure
1021.1 hPa
Previous

2 hours ago

KROG 220658Z AUTO 05006KT 10SM SCT065 OVC080 03/M02 A3014 RMK AO2 SLP210 T00331022
Observed
Feb-22 @ 06:58 UTC
Wind
  • 050° at 6 KTS
Visibility
10 SM
Flight Rules
VFR
Cloud Levels
  • Scattered at 6,500' AGL
  • Overcast at 8,000' AGL
Temperature
C / 37°F
Dewpoint
-2°C / 28°F
Humidity
70%
Altimeter
30.14" Hg
Pressure
1021 hPa